Canefield Airport

Cloudy with adjacent showers
27oC (81oF)

Cloudy with adjacent showers


Winds: South easterly @ 03kts/06km/h

Humidity: 56%

Barometric Pressure: 1014 mb

Accumulated Rainfall for February: 31.8 mm

Updated: 16:00 local time (20:00 UTC)

Douglas-Charles Airport

Cloudy and breezy with adjacent showers
24oC (75oF)

Cloudy and breezy with adjacent showers


Winds: Easterly @ 15kts / 28km/h gusting to 25kts /46km/h

Humidity: 92%

Barometric Pressure: 1016 mb

Accumulated Rainfall for February: 23.8 mm

Updated: 18:00 local time (22:00 UTC)

Satellite Imagery

Satellite Imagery
Click image for larger view. (Source: National Hurricane Center).

Aviation Routine Report (METAR)

Douglas-Charles: METAR TDPD 082200Z 10015G25KT 9999 BKN015 24/23 Q1016 RERA=
Canefield: METAR TDCF 082000Z 13003KT 9999 BKN018 27/18 Q1014=